createdAt,value
2022-10-17T00:00:47.980Z,106135.31
2022-10-17T00:03:14.545Z,106195.09
2022-10-17T00:05:43.029Z,106218.53
2022-10-17T00:08:11.489Z,106280.41
2022-10-17T00:10:38.505Z,106297.00
2022-10-17T00:13:05.701Z,106293.41
2022-10-17T00:15:33.117Z,106356.22
2022-10-17T00:18:00.176Z,106372.75
2022-10-17T00:20:26.736Z,106380.78
2022-10-17T00:22:53.474Z,106379.53
2022-10-17T00:25:20.189Z,106460.91
2022-10-17T00:27:46.558Z,106428.19
2022-10-17T00:30:15.742Z,106495.66
2022-10-17T00:32:42.258Z,106503.59
2022-10-17T00:35:09.465Z,106466.56
2022-10-17T00:37:36.159Z,106510.81
2022-10-17T00:40:03.885Z,106541.50
2022-10-17T00:42:30.594Z,106521.09
2022-10-17T00:45:13.854Z,106483.44
2022-10-17T00:47:41.915Z,106505.22
2022-10-17T00:50:09.593Z,106501.81
2022-10-17T00:52:36.302Z,106518.34
2022-10-17T00:55:07.088Z,106505.91
2022-10-17T00:57:33.865Z,106519.53
2022-10-17T01:00:06.585Z,106505.31
2022-10-17T01:02:33.101Z,106538.22
2022-10-17T01:04:59.991Z,106494.53
2022-10-17T01:07:33.177Z,106501.81
2022-10-17T01:10:05.175Z,106559.59
2022-10-17T01:12:40.371Z,106618.88
2022-10-17T01:15:14.093Z,106615.88
2022-10-17T01:17:46.268Z,106525.25
2022-10-17T01:20:12.593Z,106523.47
2022-10-17T01:22:44.824Z,106548.44
2022-10-17T01:25:52.518Z,106506.34
2022-10-17T01:28:40.276Z,106556.66
2022-10-17T01:31:12.875Z,106430.16
2022-10-17T01:33:45.187Z,106483.28
2022-10-17T01:36:17.225Z,106511.47
2022-10-17T01:38:53.023Z,106446.34
2022-10-17T01:41:35.077Z,106427.53
2022-10-17T01:44:08.773Z,106417.38
2022-10-17T01:46:49.506Z,106398.28
2022-10-17T01:49:21.725Z,106338.03
2022-10-17T01:52:02.673Z,106347.88
2022-10-17T01:54:47.255Z,106371.69
2022-10-17T01:57:35.775Z,106400.94
2022-10-17T02:00:08.972Z,106405.19
2022-10-17T02:02:36.767Z,106394.75
2022-10-17T02:05:04.479Z,106335.38
2022-10-17T02:07:31.129Z,106373.03
2022-10-17T02:09:57.694Z,106374.59
2022-10-17T02:12:42.879Z,106371.91
2022-10-17T02:15:29.494Z,106393.53
2022-10-17T02:18:18.387Z,106377.91
2022-10-17T02:20:59.706Z,106320.53
2022-10-17T02:23:34.816Z,106372.34
2022-10-17T02:26:15.226Z,106395.19
2022-10-17T02:28:52.065Z,106416.72
2022-10-17T02:31:30.876Z,106410.13
2022-10-17T02:34:16.182Z,106428.91
2022-10-17T02:36:49.973Z,106417.97
2022-10-17T02:39:18.544Z,106462.69
2022-10-17T02:41:47.869Z,106421.78
2022-10-17T02:44:14.294Z,106446.91
2022-10-17T02:46:42.679Z,106478.22
2022-10-17T02:49:20.255Z,106527.25
2022-10-17T02:52:16.306Z,106546.75
2022-10-17T02:54:47.791Z,106544.41
2022-10-17T02:57:19.252Z,106528.03
2022-10-17T02:59:47.012Z,106545.91
2022-10-17T03:02:13.421Z,106485.19
2022-10-17T03:04:43.948Z,106533.06
2022-10-17T03:07:10.361Z,106492.44
2022-10-17T03:09:36.900Z,106521.00
2022-10-17T03:12:03.776Z,106531.25
2022-10-17T03:14:30.213Z,106521.19
2022-10-17T03:16:56.606Z,106522.91
2022-10-17T03:19:23.241Z,106514.34
2022-10-17T03:21:49.657Z,106444.75
2022-10-17T03:24:16.043Z,106433.47
2022-10-17T03:26:42.467Z,106428.28
2022-10-17T03:29:08.921Z,106376.66
2022-10-17T03:31:36.144Z,106410.06
2022-10-17T03:34:02.940Z,106440.03
2022-10-17T03:36:29.407Z,106454.91
2022-10-17T03:38:55.972Z,106418.53
2022-10-17T03:41:22.363Z,106448.22
2022-10-17T03:43:48.813Z,106423.03
2022-10-17T03:46:15.288Z,106380.59
2022-10-17T03:48:41.700Z,106315.09
2022-10-17T03:51:09.515Z,106387.00
2022-10-17T03:53:35.924Z,106431.22
2022-10-17T03:56:15.526Z,106431.75
2022-10-17T03:58:42.550Z,106337.50
2022-10-17T04:01:11.413Z,106273.84
2022-10-17T04:03:38.096Z,106278.84
2022-10-17T04:06:05.560Z,106326.38
2022-10-17T04:08:33.108Z,106258.63
2022-10-17T04:11:05.011Z,106228.84
2022-10-17T04:13:32.161Z,106327.13
2022-10-17T04:16:04.980Z,106344.88
2022-10-17T04:18:32.013Z,106313.78
2022-10-17T04:20:58.398Z,106322.44
2022-10-17T04:23:24.783Z,106369.97
2022-10-17T04:25:56.290Z,106344.50
2022-10-17T04:28:23.131Z,106385.41
2022-10-17T04:31:03.510Z,106383.13
2022-10-17T04:33:31.861Z,106391.41
2022-10-17T04:35:58.213Z,106402.00
2022-10-17T04:38:27.753Z,106339.50
2022-10-17T04:40:58.083Z,106324.72
2022-10-17T04:43:24.571Z,106317.00
2022-10-17T04:45:50.959Z,106300.13
2022-10-17T04:48:17.319Z,106224.81
2022-10-17T04:50:53.881Z,106249.03
2022-10-17T04:53:20.421Z,106225.22
2022-10-17T04:55:46.864Z,106142.13
2022-10-17T04:58:13.339Z,106173.22
2022-10-17T05:00:39.880Z,106096.28
2022-10-17T05:03:06.447Z,106112.53
2022-10-17T05:05:32.957Z,106059.72
2022-10-17T05:07:59.442Z,106074.25
2022-10-17T05:10:25.898Z,106041.97
2022-10-17T05:12:53.119Z,106011.41
2022-10-17T05:15:19.544Z,105961.16
2022-10-17T05:17:45.931Z,106020.16
2022-10-17T05:20:12.372Z,105939.09
2022-10-17T05:22:41.279Z,105892.50
2022-10-17T05:25:08.927Z,105833.09
2022-10-17T05:27:35.318Z,105899.50
2022-10-17T05:30:01.734Z,105860.91
2022-10-17T05:32:28.398Z,105894.25
2022-10-17T05:34:55.015Z,105888.81
2022-10-17T05:37:21.451Z,105892.31
2022-10-17T05:39:50.696Z,105926.94
2022-10-17T05:42:18.081Z,105912.19
2022-10-17T05:44:44.454Z,105977.69
2022-10-17T05:47:10.903Z,105982.91
2022-10-17T05:49:47.376Z,106071.41
2022-10-17T05:52:17.964Z,106197.50
2022-10-17T05:54:44.392Z,106242.63
2022-10-17T05:57:11.239Z,106278.69
2022-10-17T05:59:37.640Z,106275.81
2022-10-17T06:02:04.237Z,106267.22
2022-10-17T06:04:30.700Z,106292.31
2022-10-17T06:06:57.149Z,106335.09
2022-10-17T06:09:24.096Z,106294.19
2022-10-17T06:11:50.499Z,106349.03
2022-10-17T06:14:16.927Z,106301.69
2022-10-17T06:16:43.342Z,106360.19
2022-10-17T06:19:09.794Z,106371.38
2022-10-17T06:21:36.196Z,106324.06
2022-10-17T06:24:02.596Z,106340.78
2022-10-17T06:26:29.152Z,106348.41
2022-10-17T06:28:55.724Z,106390.91
2022-10-17T06:31:22.203Z,106321.00
2022-10-17T06:33:48.622Z,106339.94
2022-10-17T06:36:15.333Z,106317.88
2022-10-17T06:38:41.834Z,106295.63
2022-10-17T06:41:16.548Z,106300.84
2022-10-17T06:43:44.014Z,106253.78
2022-10-17T06:46:10.482Z,106248.56
2022-10-17T06:48:36.976Z,106214.16
2022-10-17T06:51:04.909Z,106187.06
2022-10-17T06:53:33.685Z,106197.00
2022-10-17T06:56:00.666Z,106216.19
2022-10-17T06:58:28.528Z,106181.38
2022-10-17T07:01:02.187Z,106202.06
2022-10-17T07:03:29.329Z,106203.03
2022-10-17T07:05:56.263Z,106202.28
2022-10-17T07:08:23.475Z,106270.16
2022-10-17T07:10:50.852Z,106260.47
2022-10-17T07:13:18.416Z,106278.00
2022-10-17T07:15:45.044Z,106394.06
2022-10-17T07:18:11.535Z,106459.31
2022-10-17T07:20:38.127Z,106572.00
2022-10-17T07:23:04.659Z,106761.81
2022-10-17T07:25:31.175Z,107024.81
2022-10-17T07:27:58.476Z,107226.00
2022-10-17T07:30:25.367Z,107401.41
2022-10-17T07:32:54.579Z,107692.41
2022-10-17T07:35:21.270Z,107860.28
2022-10-17T07:37:47.697Z,107977.47
2022-10-17T07:40:14.071Z,108119.31
2022-10-17T07:45:11.799Z,108423.56
2022-10-17T07:47:38.180Z,108818.16
2022-10-17T07:50:05.791Z,108999.81
2022-10-17T07:52:32.636Z,109205.34
2022-10-17T07:54:59.208Z,109380.91
2022-10-17T07:57:25.989Z,109578.97
2022-10-17T07:59:52.396Z,109717.88
2022-10-17T08:02:23.058Z,110036.44
2022-10-17T08:04:50.079Z,110151.69
2022-10-17T08:07:24.146Z,110231.78
2022-10-17T08:09:53.473Z,110281.91
2022-10-17T08:12:20.057Z,110407.69
2022-10-17T08:14:46.543Z,110522.97
2022-10-17T08:17:12.985Z,110503.53
2022-10-17T08:19:40.290Z,110561.56
2022-10-17T08:22:07.525Z,107571.19
2022-10-17T08:24:34.238Z,107517.38
2022-10-17T08:27:00.937Z,107633.72
2022-10-17T08:29:27.839Z,107700.16
2022-10-17T08:31:58.685Z,107880.16
2022-10-17T08:34:27.960Z,107991.25
2022-10-17T08:36:54.471Z,108066.53
2022-10-17T08:39:21.023Z,108140.53
2022-10-17T08:42:00.513Z,108224.59
2022-10-17T08:44:36.500Z,108330.81
2022-10-17T08:47:11.388Z,108323.75
2022-10-17T08:49:45.460Z,108429.66
2022-10-17T08:52:20.795Z,108435.78
2022-10-17T08:54:48.780Z,108515.94
2022-10-17T08:57:16.875Z,108520.09
2022-10-17T08:59:44.896Z,108584.44
2022-10-17T09:02:48.935Z,108616.03
2022-10-17T09:05:28.224Z,108611.19
2022-10-17T09:08:12.718Z,108678.34
2022-10-17T09:10:45.292Z,108690.69
2022-10-17T09:13:31.988Z,108781.16
2022-10-17T09:16:16.662Z,108790.03
2022-10-17T09:18:47.701Z,108827.84
2022-10-17T09:21:23.295Z,108935.09
2022-10-17T09:23:59.659Z,108806.28
2022-10-17T09:26:35.822Z,108891.69
2022-10-17T09:29:02.366Z,108935.25
2022-10-17T09:31:42.506Z,109100.19
2022-10-17T09:34:11.010Z,109098.66
2022-10-17T09:36:40.490Z,109085.97
2022-10-17T09:39:18.438Z,109042.38
2022-10-17T09:41:54.077Z,109195.28
2022-10-17T09:44:30.423Z,109149.88
2022-10-17T09:47:18.415Z,109207.69
2022-10-17T09:49:47.038Z,109189.22
2022-10-17T09:52:27.091Z,109199.50
2022-10-17T09:54:59.869Z,109136.16
2022-10-17T09:57:26.344Z,109227.78
2022-10-17T09:59:57.665Z,109226.75
2022-10-17T10:02:25.881Z,109173.28
2022-10-17T10:05:03.606Z,109206.81
2022-10-17T10:07:40.346Z,109159.97
2022-10-17T10:10:23.311Z,109135.41
2022-10-17T10:13:14.435Z,109223.16
2022-10-17T10:15:43.620Z,109089.75
2022-10-17T10:18:25.093Z,109135.19
2022-10-17T10:21:05.944Z,109044.69
2022-10-17T10:23:33.033Z,109102.25
2022-10-17T10:26:04.051Z,109119.91
2022-10-17T10:28:36.380Z,109086.38
2022-10-17T10:31:08.671Z,109033.00
2022-10-17T10:33:41.771Z,108929.94
2022-10-17T10:36:08.886Z,108985.22
2022-10-17T10:38:37.970Z,108930.41
2022-10-17T10:41:07.261Z,108956.38
2022-10-17T10:43:49.187Z,108893.53
2022-10-17T10:46:20.067Z,108907.94
2022-10-17T10:49:00.640Z,108971.41
2022-10-17T10:51:40.455Z,108856.16
2022-10-17T10:54:28.069Z,108797.31
2022-10-17T10:56:58.071Z,108791.75
2022-10-17T10:59:37.363Z,108722.97
2022-10-17T11:02:31.084Z,108734.34
2022-10-17T11:05:04.268Z,108783.59
2022-10-17T11:07:42.087Z,108618.09
2022-10-17T11:10:27.226Z,108663.44
2022-10-17T11:13:08.571Z,108693.69
2022-10-17T11:15:47.346Z,108768.41
2022-10-17T11:18:32.367Z,108673.63
2022-10-17T11:21:19.018Z,108681.84
2022-10-17T11:23:56.348Z,108592.25
2022-10-17T11:26:33.427Z,108603.66
2022-10-17T11:29:03.835Z,108514.84
2022-10-17T11:31:41.572Z,108506.03
2022-10-17T11:34:20.100Z,108438.19
2022-10-17T11:36:50.441Z,108508.00
2022-10-17T11:39:22.764Z,108394.41
2022-10-17T11:42:10.701Z,108345.63
2022-10-17T11:44:39.613Z,108283.19
2022-10-17T11:47:22.103Z,108191.34
2022-10-17T11:53:31.197Z,108022.94
2022-10-17T11:56:00.948Z,107860.69
2022-10-17T11:59:06.087Z,107776.69
2022-10-17T12:01:47.480Z,107636.16
2022-10-17T12:04:37.840Z,107481.66
2022-10-17T12:07:10.135Z,107417.38
2022-10-17T12:09:51.784Z,107272.50
2022-10-17T12:12:33.562Z,107238.50
2022-10-17T12:15:21.919Z,107211.06
2022-10-17T12:18:02.312Z,106965.59
2022-10-17T12:20:28.712Z,106913.66
2022-10-17T12:23:04.932Z,106783.34
2022-10-17T12:25:34.232Z,106571.75
2022-10-17T12:28:26.227Z,106381.25
2022-10-17T12:31:01.985Z,105880.47
2022-10-17T12:33:38.925Z,105756.56
2022-10-17T12:36:17.548Z,105672.72
2022-10-17T12:39:11.525Z,105533.41
2022-10-17T12:41:37.942Z,105577.25
2022-10-17T12:44:13.325Z,105491.72
2022-10-17T12:46:45.696Z,105431.84
2022-10-17T12:49:41.516Z,105371.44
2022-10-17T12:52:26.449Z,105416.06
2022-10-17T12:55:13.388Z,105367.88
2022-10-17T12:57:53.554Z,105345.28
2022-10-17T13:00:27.251Z,105357.66
2022-10-17T13:03:01.912Z,105244.72
2022-10-17T13:05:33.974Z,105237.91
2022-10-17T13:08:05.891Z,105230.25
2022-10-17T13:10:35.895Z,105238.34
2022-10-17T13:13:16.840Z,105205.78
2022-10-17T13:15:51.233Z,105163.25
2022-10-17T13:18:26.445Z,105129.91
2022-10-17T13:21:04.022Z,105160.75
2022-10-17T13:23:33.579Z,105197.16
2022-10-17T13:26:15.148Z,105173.13
2022-10-17T13:28:43.446Z,105207.59
2022-10-17T13:31:31.917Z,105277.66
2022-10-17T13:34:01.739Z,105254.16
2022-10-17T13:36:29.577Z,105366.25
2022-10-17T13:38:59.129Z,105383.06
2022-10-17T13:41:37.086Z,105407.28
2022-10-17T13:44:11.934Z,105435.50
2022-10-17T13:46:39.932Z,105461.50
2022-10-17T13:49:34.414Z,105501.53
2022-10-17T13:52:03.791Z,105530.75
2022-10-17T13:54:40.265Z,105564.56
2022-10-17T13:57:24.942Z,105595.28
2022-10-17T13:59:59.827Z,105607.38
2022-10-17T14:02:31.704Z,105603.50
2022-10-17T14:05:20.168Z,105576.69
2022-10-17T14:08:11.455Z,105493.66
2022-10-17T14:10:41.120Z,105415.34
2022-10-17T14:13:19.555Z,105358.19
2022-10-17T14:15:46.625Z,105219.97
2022-10-17T14:18:23.710Z,105206.91
2022-10-17T14:23:43.242Z,105114.28
2022-10-17T14:26:14.237Z,105029.78
2022-10-17T14:28:46.085Z,105005.41
2022-10-17T14:31:21.840Z,104983.63
2022-10-17T14:33:51.176Z,104944.94
2022-10-17T14:36:19.568Z,104888.31
2022-10-17T14:38:49.888Z,104806.34
2022-10-17T14:41:43.473Z,104802.84
2022-10-17T14:44:24.183Z,104742.53
2022-10-17T14:46:54.673Z,104740.69
2022-10-17T14:49:51.400Z,104713.31
2022-10-17T14:52:28.523Z,104691.34
2022-10-17T14:54:56.531Z,104657.44
2022-10-17T14:57:28.328Z,104615.34
2022-10-17T14:59:56.319Z,104564.34
2022-10-17T15:02:27.822Z,104500.53
2022-10-17T15:04:54.921Z,104400.94
2022-10-17T15:07:21.799Z,104397.03
2022-10-17T15:09:51.579Z,104307.94
2022-10-17T15:12:23.655Z,104316.03
2022-10-17T15:14:50.368Z,104252.94
2022-10-17T15:17:25.902Z,104270.59
2022-10-17T15:19:52.567Z,104235.13
2022-10-17T15:22:18.965Z,104203.41
2022-10-17T15:24:46.025Z,104158.66
2022-10-17T15:27:23.923Z,104158.66
2022-10-17T15:29:50.958Z,104124.34
2022-10-17T15:32:17.611Z,104156.84
2022-10-17T15:34:44.503Z,104150.75
2022-10-17T15:37:24.010Z,104191.84
2022-10-17T15:39:55.097Z,104164.72
2022-10-17T15:42:30.592Z,104255.38
2022-10-17T15:44:57.970Z,104268.06
2022-10-17T15:47:26.351Z,104255.91
2022-10-17T15:49:53.701Z,104339.34
2022-10-17T15:52:20.700Z,104367.22
2022-10-17T15:54:47.372Z,104405.06
2022-10-17T15:57:18.940Z,104437.22
2022-10-17T15:59:46.754Z,104428.66
2022-10-17T16:02:14.846Z,104442.16
2022-10-17T16:04:41.609Z,104451.16
2022-10-17T16:07:08.057Z,104446.91
2022-10-17T16:09:35.255Z,104417.81
2022-10-17T16:12:02.257Z,104398.56
2022-10-17T16:14:28.700Z,104370.59
2022-10-17T16:16:55.170Z,104353.94
2022-10-17T16:19:21.524Z,104300.81
2022-10-17T16:21:47.952Z,104368.91
2022-10-17T16:24:14.390Z,104386.88
2022-10-17T16:26:41.059Z,104430.59
2022-10-17T16:29:07.656Z,104475.47
2022-10-17T16:31:35.591Z,104472.31
2022-10-17T16:34:03.916Z,104574.16
2022-10-17T16:36:30.519Z,104574.19
2022-10-17T16:38:56.921Z,104657.38
2022-10-17T16:41:31.423Z,104716.03
2022-10-17T16:44:04.670Z,104785.75
2022-10-17T16:46:32.638Z,104845.56
2022-10-17T16:48:59.524Z,104914.97
2022-10-17T16:51:26.025Z,105044.47
2022-10-17T16:53:53.124Z,105162.16
2022-10-17T16:56:21.725Z,105188.53
2022-10-17T16:58:48.653Z,105332.22
2022-10-17T17:01:18.080Z,105399.38
2022-10-17T17:03:46.071Z,105458.50
2022-10-17T17:06:16.205Z,105453.34
2022-10-17T17:08:43.392Z,105498.44
2022-10-17T17:11:11.660Z,105584.03
2022-10-17T17:13:39.001Z,105610.41
2022-10-17T17:16:10.895Z,105615.09
2022-10-17T17:18:38.242Z,105663.06
2022-10-17T17:21:07.308Z,105745.53
2022-10-17T17:23:36.130Z,105742.03
2022-10-17T17:26:06.019Z,105764.81
2022-10-17T17:28:33.411Z,105750.06
2022-10-17T17:30:59.831Z,105720.22
2022-10-17T17:33:26.686Z,105587.50
2022-10-17T17:35:58.821Z,105638.72
2022-10-17T17:38:25.687Z,105667.38
2022-10-17T17:40:52.217Z,105653.69
2022-10-17T17:43:18.915Z,105601.53
2022-10-17T17:45:45.955Z,105664.03
2022-10-17T17:48:12.532Z,105633.31
2022-10-17T17:50:40.969Z,105649.22
2022-10-17T17:53:09.153Z,105705.91
2022-10-17T17:55:36.170Z,105725.53
2022-10-17T17:58:03.037Z,105678.53
2022-10-17T18:00:29.522Z,105780.88
2022-10-17T18:02:57.058Z,105794.78
2022-10-17T18:05:23.671Z,105791.44
2022-10-17T18:07:50.066Z,105894.94
2022-10-17T18:10:16.594Z,105901.03
2022-10-17T18:12:43.612Z,105926.41
2022-10-17T18:15:10.754Z,105940.59
2022-10-17T18:17:37.385Z,105909.41
2022-10-17T18:20:05.483Z,105884.84
2022-10-17T18:22:32.386Z,105876.94
2022-10-17T18:24:59.119Z,105882.94
2022-10-17T18:27:25.565Z,105901.84
2022-10-17T18:29:51.978Z,105942.34
2022-10-17T18:32:18.419Z,105976.53
2022-10-17T18:34:44.838Z,106010.69
2022-10-17T18:37:11.265Z,106007.56
2022-10-17T18:39:37.710Z,106116.72
2022-10-17T18:42:04.252Z,106120.53
2022-10-17T18:44:30.611Z,106205.13
2022-10-17T18:46:59.876Z,106115.03
2022-10-17T18:49:29.510Z,106127.06
2022-10-17T18:51:55.936Z,106154.03
2022-10-17T18:54:22.336Z,106244.91
2022-10-17T18:56:54.464Z,106232.38
2022-10-17T18:59:21.776Z,106231.63
2022-10-17T19:01:48.823Z,106189.25
2022-10-17T19:04:15.721Z,106219.50
2022-10-17T19:06:42.878Z,106252.06
2022-10-17T19:09:11.697Z,106274.28
2022-10-17T19:11:38.714Z,106319.91
2022-10-17T19:14:07.653Z,106373.75
2022-10-17T19:16:36.159Z,106410.16
2022-10-17T19:19:05.885Z,106548.69
2022-10-17T19:21:33.514Z,106602.72
2022-10-17T19:24:05.461Z,106665.56
2022-10-17T19:26:33.891Z,106669.88
2022-10-17T19:29:01.205Z,106709.13
2022-10-17T19:31:29.956Z,106696.88
2022-10-17T19:33:56.770Z,106704.00
2022-10-17T19:36:30.459Z,106817.44
2022-10-17T19:39:02.605Z,106891.22
2022-10-17T19:41:29.049Z,106981.47
2022-10-17T19:43:55.507Z,107075.28
2022-10-17T19:46:24.416Z,107101.09
2022-10-17T19:48:51.652Z,107169.63
2022-10-17T19:51:20.576Z,107239.47
2022-10-17T19:53:47.853Z,107261.38
2022-10-17T19:56:14.444Z,107301.50
2022-10-17T19:58:40.828Z,107367.16
2022-10-17T20:01:07.375Z,107400.72
2022-10-17T20:03:33.801Z,107479.69
2022-10-17T20:06:00.267Z,107483.22
2022-10-17T20:11:03.109Z,107583.03
2022-10-17T20:13:29.491Z,107567.84
2022-10-17T20:15:57.154Z,107577.22
2022-10-17T20:18:24.791Z,107636.59
2022-10-17T20:20:51.336Z,107654.28
2022-10-17T20:23:17.886Z,107655.34
2022-10-17T20:25:44.417Z,107663.31
2022-10-17T20:28:11.426Z,107667.38
2022-10-17T20:30:43.693Z,107693.84
2022-10-17T20:33:10.104Z,107722.47
2022-10-17T20:35:41.433Z,107717.53
2022-10-17T20:38:07.900Z,107695.59
2022-10-17T20:40:35.571Z,107631.63
2022-10-17T20:43:05.649Z,107601.19
2022-10-17T20:45:50.341Z,107609.25
2022-10-17T20:48:18.522Z,107625.38
2022-10-17T20:50:45.012Z,107690.97
2022-10-17T20:56:08.457Z,107608.47
2022-10-17T20:58:35.410Z,107547.63
2022-10-17T21:01:06.679Z,107556.56
2022-10-17T21:03:35.803Z,107691.75
2022-10-17T21:06:02.337Z,107739.31
2022-10-17T21:08:28.697Z,107716.50
2022-10-17T21:10:55.096Z,107647.81
2022-10-17T21:13:21.512Z,107618.78
2022-10-17T21:15:47.870Z,107575.59
2022-10-17T21:18:14.279Z,107528.44
2022-10-17T21:20:40.661Z,107399.63
2022-10-17T21:23:07.061Z,107386.31
2022-10-17T21:25:33.463Z,107339.78
2022-10-17T21:28:00.044Z,107366.38
2022-10-17T21:30:26.504Z,107327.41
2022-10-17T21:32:54.257Z,107244.56
2022-10-17T21:35:20.904Z,107149.78
2022-10-17T21:37:47.330Z,107092.47
2022-10-17T21:40:14.039Z,107016.34
2022-10-17T21:42:40.523Z,106955.09
2022-10-17T21:45:15.247Z,106790.88
2022-10-17T21:48:11.126Z,106589.94
2022-10-17T21:50:33.030Z,106440.03
2022-10-17T21:52:59.415Z,106496.56
2022-10-17T21:55:25.803Z,106400.03
2022-10-17T21:57:52.234Z,106464.03
2022-10-17T22:00:18.745Z,106516.41
2022-10-17T22:02:45.130Z,106514.66
2022-10-17T22:05:11.513Z,106526.44
2022-10-17T22:07:37.901Z,106589.41
2022-10-17T22:10:04.883Z,106559.44
2022-10-17T22:12:31.572Z,106487.41
2022-10-17T22:14:58.092Z,106462.13
2022-10-17T22:17:24.484Z,106473.09
2022-10-17T22:19:50.869Z,106414.16
2022-10-17T22:22:17.304Z,106359.72
2022-10-17T22:24:43.733Z,106410.34
2022-10-17T22:27:10.130Z,106488.66
2022-10-17T22:29:36.539Z,106477.38
2022-10-17T22:32:02.998Z,106516.97
2022-10-17T22:34:29.406Z,106600.72
2022-10-17T22:36:55.814Z,106704.34
2022-10-17T22:39:22.251Z,106832.03
2022-10-17T22:41:48.647Z,106920.50
2022-10-17T22:44:15.009Z,107017.47
2022-10-17T22:46:41.391Z,107048.50
2022-10-17T22:49:07.785Z,107197.34
2022-10-17T22:51:34.240Z,107188.19
2022-10-17T22:54:00.766Z,107215.78
2022-10-17T22:56:27.206Z,107233.16
2022-10-17T22:58:53.689Z,107347.84
2022-10-17T23:01:22.757Z,107391.59
2022-10-17T23:03:49.819Z,107421.00
2022-10-17T23:06:17.254Z,107383.81
2022-10-17T23:08:43.721Z,107438.81
2022-10-17T23:11:10.600Z,107443.47
2022-10-17T23:13:37.469Z,107454.94
2022-10-17T23:16:04.210Z,107440.31
2022-10-17T23:20:57.137Z,107496.09
2022-10-17T23:23:23.543Z,107538.47
2022-10-17T23:25:50.854Z,107539.53
2022-10-17T23:28:17.614Z,107478.41
2022-10-17T23:30:44.228Z,107514.31
2022-10-17T23:33:12.135Z,107478.47
2022-10-17T23:35:38.641Z,107481.06
2022-10-17T23:38:05.047Z,107475.31
2022-10-17T23:40:31.425Z,107482.34
2022-10-17T23:42:57.846Z,107446.31
2022-10-17T23:45:24.289Z,107435.72
2022-10-17T23:47:50.697Z,107493.91
2022-10-17T23:50:17.168Z,107458.94
2022-10-17T23:52:43.671Z,107416.97
2022-10-17T23:55:10.492Z,107333.00
2022-10-17T23:57:36.886Z,107313.69
